Close Search

Base
°C
Summit
°C

WEATHER AT A GLANCE

Image Slideshow

RMR Village

Revelstoke Mountain Resort -  RMR Village Webcam

Top of The Stoke

Revelstoke Mountain Resort -  Top of The Stoke Webcam

Top of Stellar

Revelstoke Mountain Resort -  Top of Stellar Webcam

Mackenzie Outpost

Revelstoke Mountain Resort -  Mackenzie Outpost Webcam

Ripper

Revelstoke Mountain Resort -  Ripper Webcam
Base
°C
Summit
°C
Wind (Summit)
km/h

Today's Forecast

Subpeak Weather

Time Avg. Air Temp Dew Point Avg. Rel Humidity Avg. 2 Min Wind Speed Max Gust Velocity MGV Time MGV Direction Avg. Spot Wind Velocity
2026-05-07 06:05:001° C1° C100%20 km/h26 km/h06:05:00NW19 km/h
05:05:002° C2° C100%16 km/h21 km/h05:03:00W16 km/h
04:05:002° C2° C100%18 km/h21 km/h04:04:00W18 km/h
03:05:002° C2° C100%21 km/h26 km/h03:02:00NW21 km/h
02:05:003° C2° C95%28 km/h33 km/h02:05:00W27 km/h
01:05:003° C1° C86%20 km/h27 km/h01:04:00W21 km/h
00:05:004° C1° C80%25 km/h31 km/h00:02:00W26 km/h
23:05:004° C1° C77%26 km/h27 km/h23:05:00W26 km/h
22:05:005° C1° C76%16 km/h23 km/h22:01:00W19 km/h
21:05:004° C1° C80%17 km/h22 km/h21:03:00W18 km/h
20:05:004° C1° C85%13 km/h22 km/h20:04:00NE16 km/h
19:05:007° C-1° C58%5 km/h10 km/h19:01:00W6 km/h
18:05:008° C-1° C51%5 km/h9 km/h18:05:00SW3 km/h
17:05:008° C-0° C55%9 km/h20 km/h17:01:00SW12 km/h
16:05:007° C-0° C58%16 km/h22 km/h16:01:00W18 km/h
15:05:007° C-0° C56%9 km/h16 km/h15:01:00W10 km/h
14:05:006° C-0° C62%13 km/h16 km/h14:04:00W12 km/h
13:05:006° C-1° C63%13 km/h15 km/h13:04:00S12 km/h
12:05:006° C-2° C57%11 km/h16 km/h12:02:00SW11 km/h
11:05:005° C-4° C53%11 km/h15 km/h11:01:00S12 km/h
10:05:005° C-4° C50%9 km/h12 km/h10:05:00S8 km/h
09:05:005° C-4° C49%8 km/h12 km/h09:04:00S9 km/h
08:05:005° C-3° C54%17 km/h20 km/h08:03:00W17 km/h
07:05:006° C-5° C47%20 km/h24 km/h07:01:00W19 km/h

Time Avg. Air Temp Dew Point Avg. Rel Humidity Avg. 2 Min Wind Speed Max Gust Velocity MGV Time MGV Direction Avg. Spot Wind Velocity
2026-05-07 06:05:001° C1° C100%20 km/h26 km/h06:05:00NW19 km/h
06:00:001° C1° C100%18 km/h24 km/h06:00:00NW17 km/h
05:55:001° C1° C100%17 km/h23 km/h05:51:00NW16 km/h
05:50:001° C1° C100%17 km/h22 km/h05:48:00NW15 km/h
05:45:001° C1° C100%17 km/h20 km/h05:45:00W14 km/h
05:40:001° C1° C100%10 km/h14 km/h05:38:00NW11 km/h
05:35:001° C1° C100%14 km/h18 km/h05:33:00W14 km/h
05:30:001° C1° C100%14 km/h18 km/h05:30:00W13 km/h
05:25:002° C1° C100%13 km/h16 km/h05:24:00W13 km/h
05:20:002° C2° C100%11 km/h22 km/h05:16:00W14 km/h
05:15:002° C1° C100%19 km/h22 km/h05:13:00W19 km/h
05:10:002° C2° C100%19 km/h22 km/h05:10:00W17 km/h
05:05:002° C2° C100%16 km/h21 km/h05:03:00W16 km/h

We value your privacy
We use cookies to enhance your browsing experience, serve personalized ads or content, and analyze our traffic. By clicking "Allow Cookies", you consent to our use of cookies. For additional details view our Privacy Policy.
Cookie preferences

You can control how your data is used on our website. Learn more below about the cookies we use by reviewing our Privacy Policy.

Your cookie preferences have been saved.